Pays
Station

 

Conditions  météo  pour  Dugway Proving Grounds  -  Etats-Unis    Etats-Unis

  
8 °C
    
 
 

METAR pour Dugway Proving Grounds :

KDPG 031750Z 20004KT 50SM FEW040 SCT110 08/M18 A3006 RMK ACSL DSNT E-SE SLP177 T00771176 10079 21115 58004 LAST

 

Voici le bulletin pour Dugway Proving Grounds - Etats-Unis.
 
Le bulletin a été fait il y a 24 heures et 16 minutes, à 17:50 UTC .
Le vent soufflait à la vitesse de 2.1 mètres par seconde de Sud/Sud-ouest (200°).
 
La température était de 8 °C, avec un point de rosée à -18 °C.
La pression atmosphérique était de 1018 hPa.
L'humidité relative était de 13.8%.
 
Il y avait 1 à 2/8ème de nébulosité à une hauteur de 1219 mètres et 3 à 4/8ème de nébulosité à une hauteur de 3353 mètres.
 
La visibilité globale était de 80.5 kilomètres.
 

 
 
 

Pays :   A   B   C   D   E   F   G   H   I   J   K   L   M   N   O   P   Q   R   S   T   U   V   W   Y   Z

 

Partenaires :  Info Météo avec Met'info
Météo Marine avec MeteoMarine.net
Infos Site  |  Infos Légales  |  Crédits  |  Confidentialité
Contactez-nous  |  Ajouter aux favoris
© 2013-2020 METAR - Tous droits réservés